sensor_id;sensor_type;location;lat;lon;timestamp;pressure;altitude;pressure_sealevel;temperature;humidity
69796;BME280;57073;45.650;9.612;2023-04-01T00:02:30;98109.31;;;8.17;59.42
69796;BME280;57073;45.650;9.612;2023-04-01T00:07:30;98098.88;;;8.20;59.22
69796;BME280;57073;45.650;9.612;2023-04-01T00:12:31;98093.34;;;8.27;59.50
69796;BME280;57073;45.650;9.612;2023-04-01T00:17:31;98100.66;;;8.31;59.39
69796;BME280;57073;45.650;9.612;2023-04-01T00:22:32;98095.47;;;8.25;59.55
69796;BME280;57073;45.650;9.612;2023-04-01T00:27:33;98087.66;;;8.23;59.49
69796;BME280;57073;45.650;9.612;2023-04-01T00:32:34;98086.59;;;8.24;59.46
69796;BME280;57073;45.650;9.612;2023-04-01T00:37:36;98087.03;;;8.16;59.57
69796;BME280;57073;45.650;9.612;2023-04-01T00:42:37;98097.03;;;8.21;59.80
69796;BME280;57073;45.650;9.612;2023-04-01T00:47:37;98089.16;;;8.14;59.73
69796;BME280;57073;45.650;9.612;2023-04-01T00:52:37;98069.75;;;8.07;59.95
69796;BME280;57073;45.650;9.612;2023-04-01T00:57:39;98053.56;;;8.02;60.17
69796;BME280;57073;45.650;9.612;2023-04-01T01:02:43;98059.69;;;7.97;60.23
69796;BME280;57073;45.650;9.612;2023-04-01T01:13:30;98074.47;;;8.00;59.60
69796;BME280;57073;45.650;9.612;2023-04-01T01:18:51;98070.69;;;7.96;59.09
69796;BME280;57073;45.650;9.612;2023-04-01T01:35:05;98063.75;;;7.78;59.12
69796;BME280;57073;45.650;9.612;2023-04-01T01:40:10;98048.44;;;7.78;58.94
69796;BME280;57073;45.650;9.612;2023-04-01T01:45:14;98064.06;;;7.81;58.73
69796;BME280;57073;45.650;9.612;2023-04-01T01:50:19;98068.22;;;7.72;59.19
69796;BME280;57073;45.650;9.612;2023-04-01T01:55:26;98062.22;;;7.65;57.88
69796;BME280;57073;45.650;9.612;2023-04-01T02:00:27;98059.41;;;7.54;57.76
69796;BME280;57073;45.650;9.612;2023-04-01T02:05:29;98068.00;;;7.57;57.44
69796;BME280;57073;45.650;9.612;2023-04-01T02:10:34;98070.13;;;7.54;57.79
69796;BME280;57073;45.650;9.612;2023-04-01T02:15:39;98068.44;;;7.48;58.12
69796;BME280;57073;45.650;9.612;2023-04-01T02:20:42;98077.13;;;7.39;58.09
69796;BME280;57073;45.650;9.612;2023-04-01T02:25:45;98089.50;;;7.40;58.56
69796;BME280;57073;45.650;9.612;2023-04-01T02:30:47;98089.25;;;7.41;58.63
69796;BME280;57073;45.650;9.612;2023-04-01T02:35:50;98094.34;;;7.26;58.69
69796;BME280;57073;45.650;9.612;2023-04-01T02:40:57;98100.78;;;7.25;58.87
69796;BME280;57073;45.650;9.612;2023-04-01T02:45:57;98096.47;;;7.24;58.73
69796;BME280;57073;45.650;9.612;2023-04-01T02:50:58;98101.41;;;7.15;59.44
69796;BME280;57073;45.650;9.612;2023-04-01T02:55:58;98110.59;;;7.02;59.07
69796;BME280;57073;45.650;9.612;2023-04-01T03:00:58;98120.28;;;7.03;59.16
69796;BME280;57073;45.650;9.612;2023-04-01T03:06:08;98114.00;;;6.97;59.14
69796;BME280;57073;45.650;9.612;2023-04-01T03:11:09;98104.59;;;7.12;58.73
69796;BME280;57073;45.650;9.612;2023-04-01T03:16:10;98108.41;;;7.16;58.53
69796;BME280;57073;45.650;9.612;2023-04-01T03:21:18;98126.19;;;7.22;58.02
69796;BME280;57073;45.650;9.612;2023-04-01T03:26:19;98105.56;;;6.89;59.22
69796;BME280;57073;45.650;9.612;2023-04-01T03:31:20;98117.59;;;7.03;58.25
69796;BME280;57073;45.650;9.612;2023-04-01T03:36:20;98119.47;;;7.03;58.16
69796;BME280;57073;45.650;9.612;2023-04-01T03:41:20;98114.09;;;7.03;58.34
69796;BME280;57073;45.650;9.612;2023-04-01T03:46:22;98137.16;;;7.04;58.73
69796;BME280;57073;45.650;9.612;2023-04-01T03:51:22;98135.22;;;6.99;57.99
69796;BME280;57073;45.650;9.612;2023-04-01T03:56:22;98132.16;;;6.78;57.97
69796;BME280;57073;45.650;9.612;2023-04-01T04:01:23;98131.25;;;6.73;58.10
69796;BME280;57073;45.650;9.612;2023-04-01T04:06:25;98146.44;;;6.67;57.68
69796;BME280;57073;45.650;9.612;2023-04-01T04:11:25;98152.75;;;6.61;57.58
69796;BME280;57073;45.650;9.612;2023-04-01T04:16:26;98129.34;;;6.56;57.60
69796;BME280;57073;45.650;9.612;2023-04-01T04:21:26;98145.28;;;6.63;57.53
69796;BME280;57073;45.650;9.612;2023-04-01T04:26:27;98139.06;;;6.46;57.18
69796;BME280;57073;45.650;9.612;2023-04-01T04:31:27;98135.44;;;6.52;57.18
69796;BME280;57073;45.650;9.612;2023-04-01T04:36:28;98136.47;;;6.51;57.70
69796;BME280;57073;45.650;9.612;2023-04-01T04:41:28;98135.03;;;6.60;56.88
69796;BME280;57073;45.650;9.612;2023-04-01T04:46:28;98121.50;;;6.38;57.29
69796;BME280;57073;45.650;9.612;2023-04-01T04:51:29;98132.72;;;6.23;57.52
69796;BME280;57073;45.650;9.612;2023-04-01T04:56:30;98137.44;;;6.45;57.37
69796;BME280;57073;45.650;9.612;2023-04-01T05:01:31;98149.53;;;6.47;56.82
69796;BME280;57073;45.650;9.612;2023-04-01T05:06:33;98150.72;;;6.39;56.56
69796;BME280;57073;45.650;9.612;2023-04-01T05:11:33;98144.97;;;6.48;55.95
69796;BME280;57073;45.650;9.612;2023-04-01T05:16:34;98153.34;;;6.51;56.13
69796;BME280;57073;45.650;9.612;2023-04-01T05:21:34;98153.78;;;6.60;55.61
69796;BME280;57073;45.650;9.612;2023-04-01T05:26:35;98163.31;;;6.68;54.86
69796;BME280;57073;45.650;9.612;2023-04-01T05:31:36;98159.91;;;6.72;55.27
69796;BME280;57073;45.650;9.612;2023-04-01T05:36:37;98167.38;;;6.70;54.81
69796;BME280;57073;45.650;9.612;2023-04-01T05:41:38;98164.91;;;6.52;55.11
69796;BME280;57073;45.650;9.612;2023-04-01T05:46:38;98164.69;;;6.42;54.58
69796;BME280;57073;45.650;9.612;2023-04-01T05:51:38;98161.81;;;6.60;54.25
69796;BME280;57073;45.650;9.612;2023-04-01T05:56:39;98162.13;;;6.75;54.21
69796;BME280;57073;45.650;9.612;2023-04-01T06:01:39;98157.00;;;6.74;53.50
69796;BME280;57073;45.650;9.612;2023-04-01T06:06:40;98166.31;;;7.00;53.47
69796;BME280;57073;45.650;9.612;2023-04-01T06:12:21;98175.03;;;7.24;52.32
69796;BME280;57073;45.650;9.612;2023-04-01T06:33:27;98200.53;;;9.22;49.29
69796;BME280;57073;45.650;9.612;2023-04-01T06:49:32;98204.59;;;11.21;45.57
69796;BME280;57073;45.650;9.612;2023-04-01T06:54:37;98197.88;;;11.44;44.67
69796;BME280;57073;45.650;9.612;2023-04-01T06:59:40;98199.78;;;11.79;42.48
69796;BME280;57073;45.650;9.612;2023-04-01T07:04:44;98202.09;;;12.42;43.68
69796;BME280;57073;45.650;9.612;2023-04-01T07:09:51;98197.41;;;12.68;42.63
69796;BME280;57073;45.650;9.612;2023-04-01T07:14:54;98200.94;;;12.64;39.41
69796;BME280;57073;45.650;9.612;2023-04-01T07:20:02;98212.84;;;13.23;39.38
69796;BME280;57073;45.650;9.612;2023-04-01T07:30:21;98213.91;;;13.27;39.03
69796;BME280;57073;45.650;9.612;2023-04-01T07:35:38;98220.53;;;13.79;40.07
69796;BME280;57073;45.650;9.612;2023-04-01T07:57:22;98231.34;;;14.43;38.03
69796;BME280;57073;45.650;9.612;2023-04-01T08:19:04;98217.28;;;15.98;36.37
69796;BME280;57073;45.650;9.612;2023-04-01T08:24:27;98225.78;;;16.38;35.58
69796;BME280;57073;45.650;9.612;2023-04-01T08:29:48;98225.16;;;16.41;34.36
69796;BME280;57073;45.650;9.612;2023-04-01T08:35:42;98229.44;;;16.75;34.55
69796;BME280;57073;45.650;9.612;2023-04-01T08:46:06;98223.16;;;16.88;34.17
69796;BME280;57073;45.650;9.612;2023-04-01T08:56:56;98207.25;;;17.55;34.97
69796;BME280;57073;45.650;9.612;2023-04-01T09:07:43;98214.09;;;17.89;33.74
69796;BME280;57073;45.650;9.612;2023-04-01T09:40:09;98212.19;;;18.20;32.57
69796;BME280;57073;45.650;9.612;2023-04-01T09:50:54;98214.78;;;18.25;33.94
69796;BME280;57073;45.650;9.612;2023-04-01T10:49:41;98181.97;;;17.40;29.87
69796;BME280;57073;45.650;9.612;2023-04-01T11:21:27;98141.72;;;17.37;25.28
69796;BME280;57073;45.650;9.612;2023-04-01T11:26:41;98142.53;;;17.38;27.51
69796;BME280;57073;45.650;9.612;2023-04-01T11:31:54;98144.31;;;17.42;26.04
69796;BME280;57073;45.650;9.612;2023-04-01T11:53:18;98142.84;;;17.81;26.22
69796;BME280;57073;45.650;9.612;2023-04-01T12:24:46;98123.09;;;18.16;25.02
69796;BME280;57073;45.650;9.612;2023-04-01T12:51:18;98102.44;;;18.41;23.01
69796;BME280;57073;45.650;9.612;2023-04-01T12:56:02;98086.44;;;18.48;23.87
69796;BME280;57073;45.650;9.612;2023-04-01T13:01:41;98084.84;;;18.47;20.89
69796;BME280;57073;45.650;9.612;2023-04-01T13:23:22;98071.06;;;18.61;20.21
69796;BME280;57073;45.650;9.612;2023-04-01T13:28:36;98070.91;;;18.83;21.47
69796;BME280;57073;45.650;9.612;2023-04-01T14:27:31;98033.47;;;18.84;19.98
69796;BME280;57073;45.650;9.612;2023-04-01T14:48:32;98013.88;;;18.82;20.94
69796;BME280;57073;45.650;9.612;2023-04-01T14:53:37;98007.13;;;18.71;20.30
69796;BME280;57073;45.650;9.612;2023-04-01T14:58:50;98001.34;;;18.72;20.32
69796;BME280;57073;45.650;9.612;2023-04-01T15:04:21;98001.47;;;18.93;20.94
69796;BME280;57073;45.650;9.612;2023-04-01T15:09:47;97991.34;;;19.02;21.39
69796;BME280;57073;45.650;9.612;2023-04-01T15:14:55;97993.59;;;19.00;21.79
69796;BME280;57073;45.650;9.612;2023-04-01T15:40:50;97965.53;;;18.48;21.94
69796;BME280;57073;45.650;9.612;2023-04-01T15:46:14;97972.47;;;18.45;21.08
69796;BME280;57073;45.650;9.612;2023-04-01T15:51:28;97962.34;;;18.46;21.18
69796;BME280;57073;45.650;9.612;2023-04-01T15:56:40;97960.38;;;18.37;20.87
69796;BME280;57073;45.650;9.612;2023-04-01T16:12:03;97953.31;;;18.28;20.59
69796;BME280;57073;45.650;9.612;2023-04-01T16:22:40;97965.66;;;18.16;21.42
69796;BME280;57073;45.650;9.612;2023-04-01T16:44:17;97954.50;;;17.29;19.91
69796;BME280;57073;45.650;9.612;2023-04-01T16:49:36;97960.81;;;17.16;21.07
69796;BME280;57073;45.650;9.612;2023-04-01T16:59:56;97958.88;;;17.07;20.45
69796;BME280;57073;45.650;9.612;2023-04-01T17:05:04;97951.47;;;17.30;23.09
69796;BME280;57073;45.650;9.612;2023-04-01T17:15:29;97946.25;;;16.66;20.54
69796;BME280;57073;45.650;9.612;2023-04-01T17:20:42;97955.03;;;16.63;21.41
69796;BME280;57073;45.650;9.612;2023-04-01T17:42:14;97966.25;;;16.62;21.70
69796;BME280;57073;45.650;9.612;2023-04-01T17:47:35;97966.69;;;16.55;21.28
69796;BME280;57073;45.650;9.612;2023-04-01T18:03:36;97970.38;;;16.37;21.72
69796;BME280;57073;45.650;9.612;2023-04-01T18:08:55;97976.03;;;16.26;21.76
69796;BME280;57073;45.650;9.612;2023-04-01T18:24:47;97976.16;;;16.21;22.27
69796;BME280;57073;45.650;9.612;2023-04-01T18:35:27;97981.09;;;16.19;21.86
69796;BME280;57073;45.650;9.612;2023-04-01T18:45:36;97991.50;;;16.03;22.69
69796;BME280;57073;45.650;9.612;2023-04-01T18:50:55;97996.31;;;16.06;23.22
69796;BME280;57073;45.650;9.612;2023-04-01T18:56:01;98001.56;;;16.03;22.92
69796;BME280;57073;45.650;9.612;2023-04-01T19:06:23;98012.94;;;15.77;24.52
69796;BME280;57073;45.650;9.612;2023-04-01T19:17:06;98021.69;;;15.74;23.20
69796;BME280;57073;45.650;9.612;2023-04-01T19:27:36;98024.66;;;15.31;23.21
69796;BME280;57073;45.650;9.612;2023-04-01T19:32:49;98031.75;;;15.46;22.99
69796;BME280;57073;45.650;9.612;2023-04-01T19:37:59;98036.63;;;15.30;25.27
69796;BME280;57073;45.650;9.612;2023-04-01T19:43:40;98040.53;;;15.24;25.43
69796;BME280;57073;45.650;9.612;2023-04-01T19:59:36;98044.88;;;14.92;25.71
69796;BME280;57073;45.650;9.612;2023-04-01T20:04:48;98044.56;;;14.74;26.20
69796;BME280;57073;45.650;9.612;2023-04-01T20:20:24;98060.56;;;14.57;26.59
69796;BME280;57073;45.650;9.612;2023-04-01T20:25:43;98060.47;;;14.43;26.71
69796;BME280;57073;45.650;9.612;2023-04-01T20:36:21;98062.00;;;14.30;28.14
69796;BME280;57073;45.650;9.612;2023-04-01T20:47:34;98081.03;;;14.25;27.27
69796;BME280;57073;45.650;9.612;2023-04-01T20:52:41;98077.66;;;14.14;28.48
69796;BME280;57073;45.650;9.612;2023-04-01T20:57:55;98089.38;;;14.10;28.00
69796;BME280;57073;45.650;9.612;2023-04-01T21:40:34;98106.66;;;13.31;28.65
69796;BME280;57073;45.650;9.612;2023-04-01T22:08:41;98125.00;;;13.05;29.97
69796;BME280;57073;45.650;9.612;2023-04-01T22:13:54;98122.06;;;12.96;29.69
69796;BME280;57073;45.650;9.612;2023-04-01T22:19:12;98120.19;;;12.91;29.61
69796;BME280;57073;45.650;9.612;2023-04-01T22:24:44;98123.50;;;12.83;29.74
69796;BME280;57073;45.650;9.612;2023-04-01T22:40:23;98148.47;;;12.65;30.75
69796;BME280;57073;45.650;9.612;2023-04-01T22:55:33;98152.13;;;12.29;31.23
69796;BME280;57073;45.650;9.612;2023-04-01T23:00:45;98156.19;;;12.32;30.93
69796;BME280;57073;45.650;9.612;2023-04-01T23:05:55;98158.06;;;12.37;30.69
69796;BME280;57073;45.650;9.612;2023-04-01T23:10:58;98158.84;;;12.37;29.96
69796;BME280;57073;45.650;9.612;2023-04-01T23:16:00;98169.19;;;12.25;31.12
69796;BME280;57073;45.650;9.612;2023-04-01T23:21:26;98165.41;;;12.21;31.22
69796;BME280;57073;45.650;9.612;2023-04-01T23:31:56;98155.69;;;12.14;30.37
69796;BME280;57073;45.650;9.612;2023-04-01T23:37:10;98167.06;;;12.11;30.21
69796;BME280;57073;45.650;9.612;2023-04-01T23:42:30;98172.50;;;12.01;31.16
69796;BME280;57073;45.650;9.612;2023-04-01T23:47:35;98168.47;;;11.88;31.18
69796;BME280;57073;45.650;9.612;2023-04-01T23:52:42;98175.72;;;12.03;31.16
